sensor_id;sensor_type;location;lat;lon;timestamp;pressure;altitude;pressure_sealevel;temperature;humidity
37142;BME280;23041;49.816;20.092;2022-09-09T00:02:18;97356.84;;;18.41;68.45
37142;BME280;23041;49.816;20.092;2022-09-09T00:04:58;97363.48;;;18.49;68.68
37142;BME280;23041;49.816;20.092;2022-09-09T00:07:52;97355.99;;;18.55;68.89
37142;BME280;23041;49.816;20.092;2022-09-09T00:10:32;97355.99;;;18.55;68.89
37142;BME280;23041;49.816;20.092;2022-09-09T00:15:59;97360.94;;;18.71;69.09
37142;BME280;23041;49.816;20.092;2022-09-09T00:24:44;97353.07;;;18.44;68.97
37142;BME280;23041;49.816;20.092;2022-09-09T00:27:16;97354.89;;;18.36;69.00
37142;BME280;23041;49.816;20.092;2022-09-09T00:33:00;97357.75;;;18.32;69.06
37142;BME280;23041;49.816;20.092;2022-09-09T00:35:29;97359.91;;;18.32;69.11
37142;BME280;23041;49.816;20.092;2022-09-09T00:38:09;97353.17;;;18.19;69.15
37142;BME280;23041;49.816;20.092;2022-09-09T00:40:58;97358.95;;;18.15;69.22
37142;BME280;23041;49.816;20.092;2022-09-09T00:43:42;97354.58;;;18.09;69.28
37142;BME280;23041;49.816;20.092;2022-09-09T00:52:30;97363.39;;;18.07;69.43
37142;BME280;23041;49.816;20.092;2022-09-09T00:57:45;97357.49;;;17.89;69.56
37142;BME280;23041;49.816;20.092;2022-09-09T01:00:23;97370.20;;;17.96;69.65
37142;BME280;23041;49.816;20.092;2022-09-09T01:03:35;97375.75;;;17.96;69.66
37142;BME280;23041;49.816;20.092;2022-09-09T01:06:25;97380.39;;;17.94;69.68
37142;BME280;23041;49.816;20.092;2022-09-09T01:14:43;97374.48;;;17.67;69.87
37142;BME280;23041;49.816;20.092;2022-09-09T01:17:24;97383.66;;;17.73;69.95
37142;BME280;23041;49.816;20.092;2022-09-09T01:20:23;97384.34;;;17.78;69.96
37142;BME280;23041;49.816;20.092;2022-09-09T01:26:13;97380.73;;;17.82;70.03
37142;BME280;23041;49.816;20.092;2022-09-09T01:28:44;97369.63;;;17.62;70.08
37142;BME280;23041;49.816;20.092;2022-09-09T01:31:15;97379.19;;;17.61;70.16
37142;BME280;23041;49.816;20.092;2022-09-09T01:33:46;97384.67;;;17.65;70.20
37142;BME280;23041;49.816;20.092;2022-09-09T01:36:20;97392.19;;;17.69;70.19
37142;BME280;23041;49.816;20.092;2022-09-09T01:38:47;97391.75;;;17.66;70.24
37142;BME280;23041;49.816;20.092;2022-09-09T01:41:14;97393.47;;;17.64;70.24
37142;BME280;23041;49.816;20.092;2022-09-09T01:43:40;97388.86;;;17.50;70.28
37142;BME280;23041;49.816;20.092;2022-09-09T01:46:07;97400.22;;;17.52;70.37
37142;BME280;23041;49.816;20.092;2022-09-09T01:48:34;97404.35;;;17.57;70.43
37142;BME280;23041;49.816;20.092;2022-09-09T01:51:00;97411.88;;;17.71;70.46
37142;BME280;23041;49.816;20.092;2022-09-09T01:53:27;97414.26;;;17.78;70.49
37142;BME280;23041;49.816;20.092;2022-09-09T02:07:07;97424.66;;;17.73;70.55
37142;BME280;23041;49.816;20.092;2022-09-09T02:10:08;97428.83;;;17.83;70.52
37142;BME280;23041;49.816;20.092;2022-09-09T02:12:33;97434.31;;;17.88;70.47
37142;BME280;23041;49.816;20.092;2022-09-09T02:15:07;97433.44;;;17.97;70.39
37142;BME280;23041;49.816;20.092;2022-09-09T02:17:36;97441.70;;;18.01;70.36
37142;BME280;23041;49.816;20.092;2022-09-09T02:20:13;97436.51;;;17.99;70.30
37142;BME280;23041;49.816;20.092;2022-09-09T02:22:42;97433.91;;;17.85;70.31
37142;BME280;23041;49.816;20.092;2022-09-09T02:25:12;97439.13;;;17.87;70.30
37142;BME280;23041;49.816;20.092;2022-09-09T02:27:43;97437.75;;;17.98;70.30
37142;BME280;23041;49.816;20.092;2022-09-09T02:30:11;97445.17;;;18.06;70.28
37142;BME280;23041;49.816;20.092;2022-09-09T02:32:40;97450.17;;;18.02;70.23
37142;BME280;23041;49.816;20.092;2022-09-09T02:35:12;97457.05;;;17.97;70.16
37142;BME280;23041;49.816;20.092;2022-09-09T02:37:42;97459.81;;;17.97;70.15
37142;BME280;23041;49.816;20.092;2022-09-09T02:40:13;97453.20;;;17.84;70.13
37142;BME280;23041;49.816;20.092;2022-09-09T02:42:43;97455.48;;;17.75;70.15
37142;BME280;23041;49.816;20.092;2022-09-09T02:45:11;97458.73;;;17.74;70.16
37142;BME280;23041;49.816;20.092;2022-09-09T02:47:46;97460.52;;;17.67;70.14
37142;BME280;23041;49.816;20.092;2022-09-09T02:50:23;97474.77;;;17.74;70.16
37142;BME280;23041;49.816;20.092;2022-09-09T02:58:22;97479.80;;;17.66;70.10
37142;BME280;23041;49.816;20.092;2022-09-09T03:00:50;97476.00;;;17.59;70.09
37142;BME280;23041;49.816;20.092;2022-09-09T03:03:18;97475.82;;;17.47;70.11
37142;BME280;23041;49.816;20.092;2022-09-09T03:05:45;97476.70;;;17.39;70.16
37142;BME280;23041;49.816;20.092;2022-09-09T03:08:12;97476.83;;;17.40;70.19
37142;BME280;23041;49.816;20.092;2022-09-09T03:10:39;97482.96;;;17.44;70.20
37142;BME280;23041;49.816;20.092;2022-09-09T03:13:05;97485.87;;;17.30;70.18
37142;BME280;23041;49.816;20.092;2022-09-09T03:15:33;97483.31;;;17.27;70.15
37142;BME280;23041;49.816;20.092;2022-09-09T03:17:59;97482.54;;;17.26;70.17
37142;BME280;23041;49.816;20.092;2022-09-09T03:20:27;97476.92;;;17.16;70.18
37142;BME280;23041;49.816;20.092;2022-09-09T03:22:55;97478.09;;;17.09;70.24
37142;BME280;23041;49.816;20.092;2022-09-09T03:25:22;97480.47;;;17.02;70.28
37142;BME280;23041;49.816;20.092;2022-09-09T03:27:50;97480.17;;;17.00;70.30
37142;BME280;23041;49.816;20.092;2022-09-09T03:30:20;97487.77;;;16.80;70.24
37142;BME280;23041;49.816;20.092;2022-09-09T03:32:47;97485.25;;;16.67;70.23
37142;BME280;23041;49.816;20.092;2022-09-09T03:35:14;97485.88;;;16.62;70.28
37142;BME280;23041;49.816;20.092;2022-09-09T03:37:41;97477.47;;;16.52;70.35
37142;BME280;23041;49.816;20.092;2022-09-09T03:40:09;97483.26;;;16.40;70.44
37142;BME280;23041;49.816;20.092;2022-09-09T03:42:36;97485.41;;;16.40;70.52
37142;BME280;23041;49.816;20.092;2022-09-09T03:45:10;97497.48;;;16.52;70.61
37142;BME280;23041;49.816;20.092;2022-09-09T03:47:37;97496.36;;;16.58;70.63
37142;BME280;23041;49.816;20.092;2022-09-09T03:50:05;97500.09;;;16.55;70.63
37142;BME280;23041;49.816;20.092;2022-09-09T03:52:35;97504.09;;;16.54;70.64
37142;BME280;23041;49.816;20.092;2022-09-09T03:55:03;97502.71;;;16.54;70.70
37142;BME280;23041;49.816;20.092;2022-09-09T03:57:31;97500.48;;;16.44;70.74
37142;BME280;23041;49.816;20.092;2022-09-09T04:00:03;97502.76;;;16.45;70.82
37142;BME280;23041;49.816;20.092;2022-09-09T04:02:30;97504.41;;;16.52;70.84
37142;BME280;23041;49.816;20.092;2022-09-09T04:04:57;97506.05;;;16.58;70.87
37142;BME280;23041;49.816;20.092;2022-09-09T04:07:23;97510.21;;;16.58;70.86
37142;BME280;23041;49.816;20.092;2022-09-09T04:09:51;97512.10;;;16.52;70.87
37142;BME280;23041;49.816;20.092;2022-09-09T04:12:22;97512.10;;;16.52;70.90
37142;BME280;23041;49.816;20.092;2022-09-09T04:14:48;97507.61;;;16.36;70.92
37142;BME280;23041;49.816;20.092;2022-09-09T04:17:15;97505.76;;;16.37;70.98
37142;BME280;23041;49.816;20.092;2022-09-09T04:19:41;97518.30;;;16.47;71.00
37142;BME280;23041;49.816;20.092;2022-09-09T04:22:08;97512.83;;;16.57;70.97
37142;BME280;23041;49.816;20.092;2022-09-09T04:24:35;97506.97;;;16.64;70.99
37142;BME280;23041;49.816;20.092;2022-09-09T04:27:01;97509.08;;;16.69;70.99
37142;BME280;23041;49.816;20.092;2022-09-09T04:29:28;97503.02;;;16.56;71.00
37142;BME280;23041;49.816;20.092;2022-09-09T04:31:54;97500.98;;;16.57;71.05
37142;BME280;23041;49.816;20.092;2022-09-09T04:34:20;97509.33;;;16.52;71.07
37142;BME280;23041;49.816;20.092;2022-09-09T04:36:47;97514.08;;;16.61;71.05
37142;BME280;23041;49.816;20.092;2022-09-09T04:39:13;97514.47;;;16.68;71.08
37142;BME280;23041;49.816;20.092;2022-09-09T04:41:40;97513.06;;;16.73;71.08
37142;BME280;23041;49.816;20.092;2022-09-09T04:44:06;97499.00;;;16.62;71.11
37142;BME280;23041;49.816;20.092;2022-09-09T04:46:33;97504.77;;;16.68;71.14
37142;BME280;23041;49.816;20.092;2022-09-09T04:49:02;97496.44;;;16.73;71.21
37142;BME280;23041;49.816;20.092;2022-09-09T04:51:28;97511.94;;;16.80;71.20
37142;BME280;23041;49.816;20.092;2022-09-09T04:53:56;97508.31;;;16.88;71.18
37142;BME280;23041;49.816;20.092;2022-09-09T04:56:23;97505.89;;;16.86;71.14
37142;BME280;23041;49.816;20.092;2022-09-09T04:58:51;97512.36;;;16.83;71.11
37142;BME280;23041;49.816;20.092;2022-09-09T05:01:19;97506.05;;;16.63;71.04
37142;BME280;23041;49.816;20.092;2022-09-09T05:03:51;97513.73;;;16.68;71.06
37142;BME280;23041;49.816;20.092;2022-09-09T05:06:20;97515.18;;;16.78;71.08
37142;BME280;23041;49.816;20.092;2022-09-09T05:08:47;97507.80;;;16.94;71.08
37142;BME280;23041;49.816;20.092;2022-09-09T05:11:22;97512.51;;;17.03;71.05
37142;BME280;23041;49.816;20.092;2022-09-09T05:13:52;97513.52;;;17.10;71.02
37142;BME280;23041;49.816;20.092;2022-09-09T05:16:20;97512.19;;;17.20;70.97
37142;BME280;23041;49.816;20.092;2022-09-09T05:18:49;97516.54;;;17.31;70.96
37142;BME280;23041;49.816;20.092;2022-09-09T05:21:18;97507.30;;;17.30;70.92
37142;BME280;23041;49.816;20.092;2022-09-09T05:23:47;97504.54;;;17.44;70.95
37142;BME280;23041;49.816;20.092;2022-09-09T05:26:15;97507.55;;;17.66;70.99
37142;BME280;23041;49.816;20.092;2022-09-09T05:28:44;97511.52;;;17.94;71.02
37142;BME280;23041;49.816;20.092;2022-09-09T05:31:11;97518.37;;;18.13;71.03
37142;BME280;23041;49.816;20.092;2022-09-09T05:33:40;97517.28;;;18.25;70.95
37142;BME280;23041;49.816;20.092;2022-09-09T05:36:11;97521.52;;;18.31;70.90
37142;BME280;23041;49.816;20.092;2022-09-09T05:38:40;97514.23;;;18.33;70.84
37142;BME280;23041;49.816;20.092;2022-09-09T05:41:07;97510.48;;;18.26;70.80
37142;BME280;23041;49.816;20.092;2022-09-09T05:43:35;97516.95;;;18.48;70.76
37142;BME280;23041;49.816;20.092;2022-09-09T05:46:09;97519.71;;;19.09;70.68
37142;BME280;23041;49.816;20.092;2022-09-09T05:48:39;97526.41;;;21.79;70.58
37142;BME280;23041;49.816;20.092;2022-09-09T05:51:09;97526.41;;;21.79;70.58
37142;BME280;23041;49.816;20.092;2022-09-09T05:53:42;97524.73;;;23.48;70.37
37142;BME280;23041;49.816;20.092;2022-09-09T05:56:13;97528.97;;;25.05;69.58
37142;BME280;23041;49.816;20.092;2022-09-09T05:58:40;97531.02;;;26.37;68.26
37142;BME280;23041;49.816;20.092;2022-09-09T06:01:14;97528.84;;;27.77;66.61
37142;BME280;23041;49.816;20.092;2022-09-09T06:03:51;97530.20;;;28.89;64.67
37142;BME280;23041;49.816;20.092;2022-09-09T06:06:21;97538.81;;;29.85;62.27
37142;BME280;23041;49.816;20.092;2022-09-09T06:08:54;97542.00;;;30.26;59.98
37142;BME280;23041;49.816;20.092;2022-09-09T06:11:29;97548.38;;;30.80;57.94
37142;BME280;23041;49.816;20.092;2022-09-09T06:13:57;97545.64;;;31.12;55.95
37142;BME280;23041;49.816;20.092;2022-09-09T06:16:25;97549.10;;;31.67;54.18
37142;BME280;23041;49.816;20.092;2022-09-09T06:18:57;97547.22;;;32.69;52.59
37142;BME280;23041;49.816;20.092;2022-09-09T06:21:24;97549.81;;;33.61;50.78
37142;BME280;23041;49.816;20.092;2022-09-09T06:23:55;97549.72;;;34.23;49.07
37142;BME280;23041;49.816;20.092;2022-09-09T06:26:24;97550.34;;;35.06;47.36
37142;BME280;23041;49.816;20.092;2022-09-09T06:28:54;97547.59;;;35.66;45.51
37142;BME280;23041;49.816;20.092;2022-09-09T06:31:22;97548.60;;;35.89;43.69
37142;BME280;23041;49.816;20.092;2022-09-09T06:33:51;97554.65;;;36.04;42.08
37142;BME280;23041;49.816;20.092;2022-09-09T06:36:23;97551.59;;;36.52;40.94
37142;BME280;23041;49.816;20.092;2022-09-09T06:38:51;97553.80;;;36.74;39.57
37142;BME280;23041;49.816;20.092;2022-09-09T06:41:19;97554.75;;;37.42;38.37
37142;BME280;23041;49.816;20.092;2022-09-09T06:43:46;97554.83;;;37.76;37.09
37142;BME280;23041;49.816;20.092;2022-09-09T06:46:15;97554.03;;;37.42;36.07
37142;BME280;23041;49.816;20.092;2022-09-09T06:48:47;97550.40;;;38.08;35.38
37142;BME280;23041;49.816;20.092;2022-09-09T06:51:16;97553.94;;;38.77;34.36
37142;BME280;23041;49.816;20.092;2022-09-09T06:53:46;97556.63;;;39.23;33.70
37142;BME280;23041;49.816;20.092;2022-09-09T06:56:20;97553.93;;;40.02;32.68
37142;BME280;23041;49.816;20.092;2022-09-09T06:58:50;97553.52;;;40.08;31.55
37142;BME280;23041;49.816;20.092;2022-09-09T07:01:23;97553.11;;;39.62;30.97
37142;BME280;23041;49.816;20.092;2022-09-09T07:03:55;97555.19;;;39.99;30.32
37142;BME280;23041;49.816;20.092;2022-09-09T07:06:43;97552.39;;;40.54;29.65
37142;BME280;23041;49.816;20.092;2022-09-09T07:09:13;97553.97;;;40.69;28.93
37142;BME280;23041;49.816;20.092;2022-09-09T07:11:48;97549.25;;;40.21;28.25
37142;BME280;23041;49.816;20.092;2022-09-09T07:14:12;97557.83;;;39.56;27.97
37142;BME280;23041;49.816;20.092;2022-09-09T07:16:41;97551.46;;;38.72;27.61
37142;BME280;23041;49.816;20.092;2022-09-09T07:19:08;97552.19;;;38.84;27.85
37142;BME280;23041;49.816;20.092;2022-09-09T07:21:35;97558.27;;;39.51;27.74
37142;BME280;23041;49.816;20.092;2022-09-09T07:24:02;97560.39;;;39.01;27.35
37142;BME280;23041;49.816;20.092;2022-09-09T07:26:31;97553.83;;;37.72;27.40
37142;BME280;23041;49.816;20.092;2022-09-09T07:28:57;97554.73;;;37.97;27.72
37142;BME280;23041;49.816;20.092;2022-09-09T07:31:26;97559.13;;;39.41;27.72
37142;BME280;23041;49.816;20.092;2022-09-09T07:33:56;97557.97;;;40.11;27.00
37142;BME280;23041;49.816;20.092;2022-09-09T07:36:25;97564.27;;;40.61;26.46
37142;BME280;23041;49.816;20.092;2022-09-09T07:38:56;97557.49;;;41.10;25.97
37142;BME280;23041;49.816;20.092;2022-09-09T07:41:32;97557.92;;;42.55;25.47
37142;BME280;23041;49.816;20.092;2022-09-09T07:43:58;97559.50;;;43.95;24.50
37142;BME280;23041;49.816;20.092;2022-09-09T07:46:26;97559.33;;;43.54;23.55
37142;BME280;23041;49.816;20.092;2022-09-09T07:48:54;97560.68;;;43.52;23.16
37142;BME280;23041;49.816;20.092;2022-09-09T07:51:25;97557.42;;;43.44;22.66
37142;BME280;23041;49.816;20.092;2022-09-09T07:53:55;97566.52;;;43.02;22.86
37142;BME280;23041;49.816;20.092;2022-09-09T07:56:26;97566.44;;;41.16;22.79
37142;BME280;23041;49.816;20.092;2022-09-09T07:58:55;97566.11;;;40.02;23.39
37142;BME280;23041;49.816;20.092;2022-09-09T08:01:34;97570.45;;;39.38;23.80
37142;BME280;23041;49.816;20.092;2022-09-09T08:04:05;97561.34;;;37.55;24.36
37142;BME280;23041;49.816;20.092;2022-09-09T08:06:37;97575.00;;;36.29;25.03
37142;BME280;23041;49.816;20.092;2022-09-09T08:09:06;97573.78;;;35.24;25.95
37142;BME280;23041;49.816;20.092;2022-09-09T08:11:33;97576.73;;;34.77;26.68
37142;BME280;23041;49.816;20.092;2022-09-09T08:14:02;97581.54;;;33.75;27.31
37142;BME280;23041;49.816;20.092;2022-09-09T08:16:32;97582.42;;;32.99;28.02
37142;BME280;23041;49.816;20.092;2022-09-09T08:19:03;97584.00;;;32.17;28.71
37142;BME280;23041;49.816;20.092;2022-09-09T08:21:31;97584.70;;;31.29;29.64
37142;BME280;23041;49.816;20.092;2022-09-09T08:24:02;97586.20;;;31.06;30.41
37142;BME280;23041;49.816;20.092;2022-09-09T08:26:31;97584.95;;;32.28;30.96
37142;BME280;23041;49.816;20.092;2022-09-09T08:29:02;97587.47;;;34.88;30.66
37142;BME280;23041;49.816;20.092;2022-09-09T08:31:37;97580.05;;;37.56;29.38
37142;BME280;23041;49.816;20.092;2022-09-09T08:34:13;97578.02;;;39.45;27.90
37142;BME280;23041;49.816;20.092;2022-09-09T08:36:42;97588.31;;;39.87;26.52
37142;BME280;23041;49.816;20.092;2022-09-09T08:39:11;97589.02;;;39.62;25.65
37142;BME280;23041;49.816;20.092;2022-09-09T08:47:54;97595.20;;;37.26;25.65
37142;BME280;23041;49.816;20.092;2022-09-09T08:50:34;97596.58;;;39.94;25.45
37142;BME280;23041;49.816;20.092;2022-09-09T08:53:04;97601.17;;;41.92;24.59
37142;BME280;23041;49.816;20.092;2022-09-09T08:55:51;97597.94;;;44.17;23.19
37142;BME280;23041;49.816;20.092;2022-09-09T08:58:23;97600.81;;;44.35;21.98
37142;BME280;23041;49.816;20.092;2022-09-09T09:11:59;97600.63;;;43.24;21.93
37142;BME280;23041;49.816;20.092;2022-09-09T09:14:30;97609.89;;;45.90;20.78
37142;BME280;23041;49.816;20.092;2022-09-09T09:17:05;97611.95;;;45.02;19.76
37142;BME280;23041;49.816;20.092;2022-09-09T09:19:34;97596.75;;;43.51;19.48
37142;BME280;23041;49.816;20.092;2022-09-09T09:22:39;97599.13;;;43.91;19.63
37142;BME280;23041;49.816;20.092;2022-09-09T09:28:07;97592.10;;;48.87;17.68
37142;BME280;23041;49.816;20.092;2022-09-09T09:30:50;97598.48;;;47.22;16.95
37142;BME280;23041;49.816;20.092;2022-09-09T09:36:24;97605.82;;;46.71;16.38
37142;BME280;23041;49.816;20.092;2022-09-09T09:38:58;97598.33;;;45.05;16.42
37142;BME280;23041;49.816;20.092;2022-09-09T09:41:38;97593.91;;;43.52;17.22
37142;BME280;23041;49.816;20.092;2022-09-09T09:44:27;97593.48;;;42.75;17.91
37142;BME280;23041;49.816;20.092;2022-09-09T09:47:14;97584.13;;;42.76;18.42
37142;BME280;23041;49.816;20.092;2022-09-09T09:49:55;97586.95;;;45.76;17.23
37142;BME280;23041;49.816;20.092;2022-09-09T09:52:26;97586.95;;;45.76;17.23
37142;BME280;23041;49.816;20.092;2022-09-09T09:54:56;97576.14;;;46.24;16.83
37142;BME280;23041;49.816;20.092;2022-09-09T09:57:27;97582.20;;;44.21;16.58
37142;BME280;23041;49.816;20.092;2022-09-09T10:00:16;97580.40;;;42.26;17.48
37142;BME280;23041;49.816;20.092;2022-09-09T10:02:45;97576.37;;;41.28;18.27
37142;BME280;23041;49.816;20.092;2022-09-09T10:07:46;97575.06;;;41.31;19.03
37142;BME280;23041;49.816;20.092;2022-09-09T10:10:23;97572.30;;;41.04;19.06
37142;BME280;23041;49.816;20.092;2022-09-09T10:19:16;97566.59;;;38.49;20.19
37142;BME280;23041;49.816;20.092;2022-09-09T10:21:20;97565.30;;;37.61;20.68
37142;BME280;23041;49.816;20.092;2022-09-09T10:35:25;97565.43;;;41.99;18.53
37142;BME280;23041;49.816;20.092;2022-09-09T10:41:13;97578.49;;;48.26;16.37
37142;BME280;23041;49.816;20.092;2022-09-09T10:44:06;97581.73;;;44.86;15.61
37142;BME280;23041;49.816;20.092;2022-09-09T10:46:51;97581.73;;;44.86;15.61
37142;BME280;23041;49.816;20.092;2022-09-09T10:49:43;97577.06;;;43.65;16.33
37142;BME280;23041;49.816;20.092;2022-09-09T10:57:48;97581.86;;;45.53;16.89
37142;BME280;23041;49.816;20.092;2022-09-09T11:00:21;97580.91;;;47.44;16.10
37142;BME280;23041;49.816;20.092;2022-09-09T11:02:56;97586.13;;;49.58;15.24
37142;BME280;23041;49.816;20.092;2022-09-09T11:05:41;97587.24;;;48.99;14.45
37142;BME280;23041;49.816;20.092;2022-09-09T11:08:24;97584.82;;;48.51;14.35
37142;BME280;23041;49.816;20.092;2022-09-09T11:13:44;97578.17;;;49.62;13.46
37142;BME280;23041;49.816;20.092;2022-09-09T11:16:45;97579.70;;;47.83;13.38
37142;BME280;23041;49.816;20.092;2022-09-09T11:19:23;97579.72;;;48.49;13.37
37142;BME280;23041;49.816;20.092;2022-09-09T11:21:50;97581.91;;;48.51;13.24
37142;BME280;23041;49.816;20.092;2022-09-09T11:24:38;97582.80;;;50.28;12.87
37142;BME280;23041;49.816;20.092;2022-09-09T11:27:29;97583.19;;;52.21;12.29
37142;BME280;23041;49.816;20.092;2022-09-09T11:33:13;97575.30;;;52.52;11.26
37142;BME280;23041;49.816;20.092;2022-09-09T11:38:46;97577.59;;;54.27;10.21
37142;BME280;23041;49.816;20.092;2022-09-09T11:41:15;97571.11;;;53.63;9.87
37142;BME280;23041;49.816;20.092;2022-09-09T11:43:47;97572.56;;;53.26;9.98
37142;BME280;23041;49.816;20.092;2022-09-09T11:46:20;97578.28;;;52.67;10.01
37142;BME280;23041;49.816;20.092;2022-09-09T11:49:00;97581.88;;;51.43;10.10
37142;BME280;23041;49.816;20.092;2022-09-09T11:51:31;97571.64;;;48.83;10.51
37142;BME280;23041;49.816;20.092;2022-09-09T11:54:00;97574.30;;;47.14;11.37
37142;BME280;23041;49.816;20.092;2022-09-09T11:59:23;97565.27;;;47.59;12.08
37142;BME280;23041;49.816;20.092;2022-09-09T12:07:45;97571.57;;;51.33;11.58
37142;BME280;23041;49.816;20.092;2022-09-09T12:10:33;97565.28;;;51.68;11.08
37142;BME280;23041;49.816;20.092;2022-09-09T12:13:17;97565.71;;;51.30;10.92
37142;BME280;23041;49.816;20.092;2022-09-09T12:15:57;97558.70;;;49.32;11.23
37142;BME280;23041;49.816;20.092;2022-09-09T12:18:35;97562.72;;;50.56;11.40
37142;BME280;23041;49.816;20.092;2022-09-09T12:21:21;97556.61;;;51.80;11.15
37142;BME280;23041;49.816;20.092;2022-09-09T12:26:34;97559.67;;;52.05;10.34
37142;BME280;23041;49.816;20.092;2022-09-09T12:34:51;97559.12;;;49.56;10.72
37142;BME280;23041;49.816;20.092;2022-09-09T12:40:32;97550.57;;;44.26;11.84
37142;BME280;23041;49.816;20.092;2022-09-09T12:43:19;97537.45;;;41.86;13.06
37142;BME280;23041;49.816;20.092;2022-09-09T12:45:52;97553.92;;;41.10;14.09
37142;BME280;23041;49.816;20.092;2022-09-09T12:48:27;97549.71;;;40.99;14.57
37142;BME280;23041;49.816;20.092;2022-09-09T12:51:17;97553.19;;;40.42;15.04
37142;BME280;23041;49.816;20.092;2022-09-09T12:53:58;97561.86;;;40.69;15.41
37142;BME280;23041;49.816;20.092;2022-09-09T12:56:30;97560.88;;;42.09;15.56
37142;BME280;23041;49.816;20.092;2022-09-09T12:58:58;97558.01;;;42.41;15.46
37142;BME280;23041;49.816;20.092;2022-09-09T13:01:30;97555.36;;;43.11;15.28
37142;BME280;23041;49.816;20.092;2022-09-09T13:03:58;97545.31;;;44.02;14.90
37142;BME280;23041;49.816;20.092;2022-09-09T13:06:30;97552.39;;;44.75;14.67
37142;BME280;23041;49.816;20.092;2022-09-09T13:09:00;97551.16;;;44.82;14.47
37142;BME280;23041;49.816;20.092;2022-09-09T13:11:36;97546.98;;;44.28;14.24
37142;BME280;23041;49.816;20.092;2022-09-09T13:14:05;97533.16;;;43.34;14.27
37142;BME280;23041;49.816;20.092;2022-09-09T13:16:34;97533.72;;;41.99;14.54
37142;BME280;23041;49.816;20.092;2022-09-09T13:19:07;97536.97;;;40.74;15.06
37142;BME280;23041;49.816;20.092;2022-09-09T13:21:37;97529.67;;;39.79;15.77
37142;BME280;23041;49.816;20.092;2022-09-09T13:24:06;97525.00;;;38.73;16.23
37142;BME280;23041;49.816;20.092;2022-09-09T13:26:36;97524.84;;;37.89;16.74
37142;BME280;23041;49.816;20.092;2022-09-09T13:29:07;97532.02;;;37.11;17.42
37142;BME280;23041;49.816;20.092;2022-09-09T13:31:37;97525.78;;;36.40;17.75
37142;BME280;23041;49.816;20.092;2022-09-09T13:34:29;97521.63;;;35.91;18.25
37142;BME280;23041;49.816;20.092;2022-09-09T13:37:21;97521.50;;;35.50;18.78
37142;BME280;23041;49.816;20.092;2022-09-09T13:39:37;97519.57;;;35.14;18.93
37142;BME280;23041;49.816;20.092;2022-09-09T13:42:05;97516.83;;;34.12;19.62
37142;BME280;23041;49.816;20.092;2022-09-09T13:44:36;97512.08;;;33.08;20.59
37142;BME280;23041;49.816;20.092;2022-09-09T13:47:18;97518.52;;;32.24;21.44
37142;BME280;23041;49.816;20.092;2022-09-09T13:49:46;97513.39;;;32.38;22.08
37142;BME280;23041;49.816;20.092;2022-09-09T13:52:17;97511.73;;;32.61;22.38
37142;BME280;23041;49.816;20.092;2022-09-09T13:54:50;97511.27;;;32.72;22.53
37142;BME280;23041;49.816;20.092;2022-09-09T13:57:19;97504.12;;;32.55;22.65
37142;BME280;23041;49.816;20.092;2022-09-09T13:59:48;97507.62;;;32.37;22.67
37142;BME280;23041;49.816;20.092;2022-09-09T14:02:16;97498.25;;;32.27;22.85
37142;BME280;23041;49.816;20.092;2022-09-09T14:04:43;97500.16;;;32.16;22.91
37142;BME280;23041;49.816;20.092;2022-09-09T14:07:14;97504.72;;;31.87;23.04
37142;BME280;23041;49.816;20.092;2022-09-09T14:09:41;97492.84;;;31.65;23.55
37142;BME280;23041;49.816;20.092;2022-09-09T14:12:11;97493.69;;;31.66;24.17
37142;BME280;23041;49.816;20.092;2022-09-09T14:14:38;97493.73;;;31.58;24.59
37142;BME280;23041;49.816;20.092;2022-09-09T14:17:04;97497.72;;;31.39;25.01
37142;BME280;23041;49.816;20.092;2022-09-09T14:19:32;97492.89;;;31.17;25.34
37142;BME280;23041;49.816;20.092;2022-09-09T14:21:59;97493.53;;;31.24;25.57
37142;BME280;23041;49.816;20.092;2022-09-09T14:24:26;97493.04;;;31.03;25.77
37142;BME280;23041;49.816;20.092;2022-09-09T14:26:53;97492.13;;;30.46;25.87
37142;BME280;23041;49.816;20.092;2022-09-09T14:29:19;97490.91;;;30.40;26.05
37142;BME280;23041;49.816;20.092;2022-09-09T14:31:46;97490.47;;;30.51;26.27
37142;BME280;23041;49.816;20.092;2022-09-09T14:34:13;97491.86;;;30.43;26.42
37142;BME280;23041;49.816;20.092;2022-09-09T14:36:40;97491.67;;;30.41;26.50
37142;BME280;23041;49.816;20.092;2022-09-09T14:39:07;97489.30;;;30.46;26.73
37142;BME280;23041;49.816;20.092;2022-09-09T14:41:34;97484.69;;;30.34;26.83
37142;BME280;23041;49.816;20.092;2022-09-09T14:44:00;97481.70;;;30.17;26.90
37142;BME280;23041;49.816;20.092;2022-09-09T14:46:27;97484.72;;;30.19;26.94
37142;BME280;23041;49.816;20.092;2022-09-09T14:48:53;97481.23;;;30.05;26.96
37142;BME280;23041;49.816;20.092;2022-09-09T14:51:24;97484.16;;;29.98;27.22
37142;BME280;23041;49.816;20.092;2022-09-09T14:53:54;97486.62;;;29.94;27.43
37142;BME280;23041;49.816;20.092;2022-09-09T14:56:25;97485.46;;;29.89;27.59
37142;BME280;23041;49.816;20.092;2022-09-09T14:58:58;97487.05;;;29.76;27.90
37142;BME280;23041;49.816;20.092;2022-09-09T15:01:27;97486.45;;;29.62;28.01
37142;BME280;23041;49.816;20.092;2022-09-09T15:03:56;97483.12;;;29.35;28.11
37142;BME280;23041;49.816;20.092;2022-09-09T15:06:26;97483.44;;;29.23;28.28
37142;BME280;23041;49.816;20.092;2022-09-09T15:08:55;97480.64;;;29.02;28.40
37142;BME280;23041;49.816;20.092;2022-09-09T15:11:23;97478.77;;;28.83;28.66
37142;BME280;23041;49.816;20.092;2022-09-09T15:13:53;97478.36;;;28.78;28.81
37142;BME280;23041;49.816;20.092;2022-09-09T15:16:22;97475.38;;;28.70;28.63
37142;BME280;23041;49.816;20.092;2022-09-09T15:18:52;97480.77;;;28.60;28.76
37142;BME280;23041;49.816;20.092;2022-09-09T15:21:22;97479.39;;;28.46;28.96
37142;BME280;23041;49.816;20.092;2022-09-09T15:23:51;97478.42;;;28.43;29.13